Time;durP1;ratioP1;P1;durP2;ratioP2;P2;SDS_P1;SDS_P2;PMS_P1;PMS_P2;Temp;Humidity;BMP_temperature;BMP_pressure;BME280_temperature;BME280_humidity;BME280_pressure;Samples;Min_cycle;Max_cycle;Signal;HPM_P1;HPM_P2
2023/12/09 00:01:20;;;;;;;6.90;6.03;;;;;;;;;;6312820;22;20372;-90
2023/12/09 00:03:46;;;;;;;6.60;5.03;;;;;;;;;;6315219;22;20402;-90
2023/12/09 00:06:12;;;;;;;6.33;5.70;;;;;;;;;;6312871;22;20391;-89
2023/12/09 00:08:38;;;;;;;8.33;6.47;;;;;;;;;;6316642;22;20843;-88
2023/12/09 00:11:04;;;;;;;6.10;5.07;;;;;;;;;;6312516;22;20433;-87
2023/12/09 00:13:32;;;;;;;9.10;6.00;;;;;;;;;;6318782;22;20395;-88
2023/12/09 00:15:58;;;;;;;7.80;5.10;;;;;;;;;;6313080;22;20372;-87
2023/12/09 00:18:24;;;;;;;8.03;6.23;;;;;;;;;;6317310;22;20372;-87
2023/12/09 00:20:50;;;;;;;7.30;6.20;;;;;;;;;;6278906;22;20380;-89
2023/12/09 00:23:16;;;;;;;7.97;6.57;;;;;;;;;;6255304;22;20377;-87
2023/12/09 00:25:42;;;;;;;6.70;5.47;;;;;;;;;;6253171;22;20959;-90
2023/12/09 00:28:08;;;;;;;8.67;5.17;;;;;;;;;;6259237;22;20387;-89
2023/12/09 00:30:34;;;;;;;7.20;6.23;;;;;;;;;;6253554;22;20435;-89
2023/12/09 00:33:00;;;;;;;7.13;5.80;;;;;;;;;;6256032;22;20377;-88
2023/12/09 00:35:26;;;;;;;8.50;6.70;;;;;;;;;;6253981;22;20387;-89
2023/12/09 00:37:53;;;;;;;7.27;5.73;;;;;;;;;;6258673;22;20375;-90
2023/12/09 00:40:22;;;;;;;10.60;6.37;;;;;;;;;;6256095;22;20475;-90
2023/12/09 00:42:48;;;;;;;8.43;6.13;;;;;;;;;;6257949;22;20360;-89
2023/12/09 00:45:17;;;;;;;6.10;5.50;;;;;;;;;;6255683;22;20380;-88
2023/12/09 00:47:43;;;;;;;6.70;6.07;;;;;;;;;;6258829;22;20412;-88
2023/12/09 00:50:09;;;;;;;9.87;6.07;;;;;;;;;;6254434;22;20423;-89
2023/12/09 00:52:36;;;;;;;6.07;5.20;;;;;;;;;;6306271;22;20707;-89
2023/12/09 00:55:02;;;;;;;8.77;7.57;;;;;;;;;;6315946;22;20386;-90
2023/12/09 00:57:28;;;;;;;15.80;6.80;;;;;;;;;;6317928;22;20364;-89
2023/12/09 00:59:54;;;;;;;7.33;5.90;;;;;;;;;;6313728;22;20376;-90
2023/12/09 01:02:20;;;;;;;8.93;6.03;;;;;;;;;;6317771;22;20376;-90
2023/12/09 01:04:46;;;;;;;7.03;6.37;;;;;;;;;;6315110;22;20380;-89
2023/12/09 01:07:12;;;;;;;8.73;7.33;;;;;;;;;;6313807;22;20410;-90
2023/12/09 01:09:38;;;;;;;6.80;5.50;;;;;;;;;;6314339;22;20526;-87
2023/12/09 01:12:04;;;;;;;11.23;6.30;;;;;;;;;;6314347;22;20379;-89
2023/12/09 01:14:30;;;;;;;10.53;5.80;;;;;;;;;;6317378;22;20898;-89
2023/12/09 01:16:56;;;;;;;10.60;5.67;;;;;;;;;;6343228;22;20416;-90
2023/12/09 01:19:22;;;;;;;7.43;5.80;;;;;;;;;;6343865;22;20442;-89
2023/12/09 01:21:49;;;;;;;5.93;5.43;;;;;;;;;;6344143;22;20360;-89
2023/12/09 01:24:15;;;;;;;11.43;4.90;;;;;;;;;;6318581;22;20463;-87
2023/12/09 01:26:41;;;;;;;13.37;6.07;;;;;;;;;;6317181;22;20360;-87
2023/12/09 01:29:07;;;;;;;13.23;5.33;;;;;;;;;;6315904;22;20431;-88
2023/12/09 01:31:33;;;;;;;9.00;5.87;;;;;;;;;;6315966;22;20479;-91
2023/12/09 01:33:59;;;;;;;8.80;5.33;;;;;;;;;;6317919;22;20447;-89
2023/12/09 01:36:25;;;;;;;10.20;7.00;;;;;;;;;;6317353;22;20367;-89
2023/12/09 01:38:51;;;;;;;10.83;7.60;;;;;;;;;;6318810;22;20380;-87
2023/12/09 01:41:17;;;;;;;8.37;7.50;;;;;;;;;;6315961;22;20424;-90
2023/12/09 01:43:46;;;;;;;7.60;6.17;;;;;;;;;;6318456;22;20843;-90
2023/12/09 01:46:12;;;;;;;10.13;7.00;;;;;;;;;;6316926;22;20368;-89
2023/12/09 01:48:38;;;;;;;7.10;5.43;;;;;;;;;;6316763;22;20382;-88
2023/12/09 01:51:05;;;;;;;7.97;5.90;;;;;;;;;;6315553;22;20415;-90
2023/12/09 01:53:30;;;;;;;7.50;5.10;;;;;;;;;;6319472;22;20368;-88
2023/12/09 01:56:00;;;;;;;7.90;5.30;;;;;;;;;;6340564;22;20794;-87
2023/12/09 01:58:26;;;;;;;13.30;5.20;;;;;;;;;;6317850;22;21262;-87
2023/12/09 02:00:53;;;;;;;7.83;5.10;;;;;;;;;;6314600;22;20422;-88
2023/12/09 02:03:19;;;;;;;10.10;5.67;;;;;;;;;;6321677;22;20459;-89
2023/12/09 02:05:45;;;;;;;9.50;5.87;;;;;;;;;;6339716;22;20371;-89
2023/12/09 02:08:11;;;;;;;8.50;5.47;;;;;;;;;;6341077;22;20420;-88
2023/12/09 02:10:37;;;;;;;6.63;4.40;;;;;;;;;;6315934;22;20423;-90
2023/12/09 02:13:06;;;;;;;5.03;4.20;;;;;;;;;;6319598;22;20458;-87
2023/12/09 02:15:34;;;;;;;8.40;4.87;;;;;;;;;;6343162;22;20370;-90
2023/12/09 02:18:01;;;;;;;5.87;4.17;;;;;;;;;;6317031;22;20838;-87
2023/12/09 02:20:28;;;;;;;9.03;4.60;;;;;;;;;;6313547;22;20372;-88
2023/12/09 02:23:05;;;;;;;4.00;3.60;;;;;;;;;;6320313;22;20561;-88
2023/12/09 02:25:31;;;;;;;5.47;3.20;;;;;;;;;;6319461;22;20378;-90
2023/12/09 02:28:01;;;;;;;7.70;4.23;;;;;;;;;;6321766;22;20398;-88
2023/12/09 02:30:36;;;;;;;4.03;3.37;;;;;;;;;;6343120;22;20419;-89
2023/12/09 02:33:03;;;;;;;5.53;4.30;;;;;;;;;;6323092;22;20395;-90
2023/12/09 02:35:50;;;;;;;7.90;4.30;;;;;;;;;;6319905;22;20382;-91
2023/12/09 02:38:25;;;;;;;7.10;5.97;;;;;;;;;;6317803;22;20603;-89
2023/12/09 02:40:53;;;;;;;7.37;4.23;;;;;;;;;;6319275;22;20367;-89
2023/12/09 02:43:25;;;;;;;4.57;4.00;;;;;;;;;;6317923;22;20865;-89
2023/12/09 02:45:51;;;;;;;5.13;4.30;;;;;;;;;;6318630;22;20378;-88
2023/12/09 02:48:20;;;;;;;6.80;3.90;;;;;;;;;;6344071;22;20366;-89
2023/12/09 02:50:46;;;;;;;5.47;3.50;;;;;;;;;;6345670;22;20418;-89
2023/12/09 02:53:14;;;;;;;9.23;4.63;;;;;;;;;;6319528;22;20368;-91
2023/12/09 02:55:40;;;;;;;5.40;3.60;;;;;;;;;;6318325;22;20374;-89
2023/12/09 02:58:05;;;;;;;8.73;4.30;;;;;;;;;;6319725;22;20355;-90
2023/12/09 03:00:31;;;;;;;9.47;4.47;;;;;;;;;;6319309;22;20435;-89
2023/12/09 03:02:57;;;;;;;8.30;3.60;;;;;;;;;;6314776;22;20406;-89
2023/12/09 03:05:24;;;;;;;7.27;4.40;;;;;;;;;;6319651;22;20474;-87
2023/12/09 03:07:50;;;;;;;7.40;3.80;;;;;;;;;;6315657;22;20376;-91
2023/12/09 03:10:16;;;;;;;5.03;4.43;;;;;;;;;;6317986;22;20415;-90
2023/12/09 03:12:42;;;;;;;6.80;3.83;;;;;;;;;;6317547;22;20388;-90
2023/12/09 03:15:08;;;;;;;4.60;3.53;;;;;;;;;;6344569;22;20406;-89
2023/12/09 03:17:34;;;;;;;4.60;3.50;;;;;;;;;;6316660;22;20790;-89
2023/12/09 03:20:00;;;;;;;4.77;4.00;;;;;;;;;;6316986;22;20383;-90
2023/12/09 03:22:27;;;;;;;4.47;4.00;;;;;;;;;;6316780;22;20479;-89
2023/12/09 03:24:53;;;;;;;11.50;4.33;;;;;;;;;;6319411;22;20375;-90
2023/12/09 03:27:19;;;;;;;5.07;3.37;;;;;;;;;;6318278;22;20708;-90
2023/12/09 03:29:45;;;;;;;12.10;5.10;;;;;;;;;;6321914;22;20423;-89
2023/12/09 03:32:10;;;;;;;6.90;3.93;;;;;;;;;;6343339;22;20468;-90
2023/12/09 03:34:37;;;;;;;4.50;3.93;;;;;;;;;;6319468;22;20485;-90
2023/12/09 03:37:03;;;;;;;8.67;3.90;;;;;;;;;;6318261;22;20386;-89
2023/12/09 03:39:28;;;;;;;5.67;4.03;;;;;;;;;;6320186;22;20376;-87
2023/12/09 03:41:55;;;;;;;4.63;4.23;;;;;;;;;;6345277;22;20348;-88
2023/12/09 03:44:21;;;;;;;6.00;3.97;;;;;;;;;;6318141;22;20355;-86
2023/12/09 03:46:46;;;;;;;4.57;3.73;;;;;;;;;;6317560;22;20412;-89
2023/12/09 03:49:12;;;;;;;9.60;3.97;;;;;;;;;;6315705;22;20476;-88
2023/12/09 03:51:38;;;;;;;4.57;3.60;;;;;;;;;;6316380;22;20375;-90
2023/12/09 03:54:04;;;;;;;5.40;3.50;;;;;;;;;;6318195;22;20395;-90
2023/12/09 03:56:31;;;;;;;8.00;4.70;;;;;;;;;;6317313;22;20389;-90
2023/12/09 03:58:57;;;;;;;11.07;4.23;;;;;;;;;;6319730;22;20478;-89
2023/12/09 04:01:24;;;;;;;5.20;3.60;;;;;;;;;;6318142;22;20436;-87
2023/12/09 04:03:50;;;;;;;5.13;3.70;;;;;;;;;;6318731;22;20441;-89
2023/12/09 04:06:17;;;;;;;5.17;3.90;;;;;;;;;;6322408;22;20417;-90
2023/12/09 04:08:43;;;;;;;8.50;3.33;;;;;;;;;;6317901;22;20413;-91
2023/12/09 04:11:09;;;;;;;5.83;3.53;;;;;;;;;;6318597;22;20424;-89
2023/12/09 04:13:35;;;;;;;4.77;3.40;;;;;;;;;;6317787;22;20395;-89
2023/12/09 04:16:01;;;;;;;5.53;3.50;;;;;;;;;;6323182;22;20372;-90
2023/12/09 04:18:29;;;;;;;5.00;4.20;;;;;;;;;;6318684;22;20359;-89
2023/12/09 04:20:56;;;;;;;5.20;3.70;;;;;;;;;;6320034;22;20383;-90
2023/12/09 04:23:22;;;;;;;9.27;4.47;;;;;;;;;;6317658;22;20380;-87
2023/12/09 04:25:48;;;;;;;8.33;3.57;;;;;;;;;;6319811;22;20405;-89
2023/12/09 04:28:15;;;;;;;6.33;3.40;;;;;;;;;;6318241;22;20367;-90
2023/12/09 04:30:41;;;;;;;10.60;3.50;;;;;;;;;;6319418;22;20451;-89
2023/12/09 04:33:07;;;;;;;5.87;3.57;;;;;;;;;;6318710;22;20387;-89
2023/12/09 04:35:33;;;;;;;4.70;3.60;;;;;;;;;;6320353;22;20393;-87
2023/12/09 04:37:59;;;;;;;2.87;2.57;;;;;;;;;;6341853;22;20391;-87
2023/12/09 04:40:25;;;;;;;4.93;3.43;;;;;;;;;;6316608;22;20414;-86
2023/12/09 04:42:51;;;;;;;5.60;3.23;;;;;;;;;;6283626;22;20403;-90
2023/12/09 04:45:18;;;;;;;7.00;2.87;;;;;;;;;;6288391;22;20368;-90
2023/12/09 04:47:44;;;;;;;4.17;2.87;;;;;;;;;;6287987;22;20685;-89
2023/12/09 04:50:10;;;;;;;6.10;3.07;;;;;;;;;;6286028;22;20459;-90
2023/12/09 04:52:36;;;;;;;6.83;3.77;;;;;;;;;;6285790;22;20399;-88
2023/12/09 04:55:03;;;;;;;7.03;2.97;;;;;;;;;;6286119;22;20739;-91
2023/12/09 04:57:29;;;;;;;5.70;3.27;;;;;;;;;;6286578;22;20357;-89
2023/12/09 04:59:55;;;;;;;3.93;2.73;;;;;;;;;;6285686;22;20380;-89
2023/12/09 05:02:21;;;;;;;3.83;3.00;;;;;;;;;;6285105;22;20458;-87
2023/12/09 05:04:48;;;;;;;3.40;2.87;;;;;;;;;;6285227;22;20375;-90
2023/12/09 05:07:14;;;;;;;4.27;3.40;;;;;;;;;;6287296;22;20487;-89
2023/12/09 05:09:40;;;;;;;9.27;3.33;;;;;;;;;;6282869;22;20436;-89
2023/12/09 05:12:06;;;;;;;7.60;4.10;;;;;;;;;;6283771;22;20380;-91
2023/12/09 05:14:32;;;;;;;4.40;2.20;;;;;;;;;;6330151;22;20398;-89
2023/12/09 05:16:58;;;;;;;4.00;2.93;;;;;;;;;;6346469;22;20367;-89
2023/12/09 05:19:24;;;;;;;7.77;2.53;;;;;;;;;;6318115;22;20389;-88
2023/12/09 05:21:50;;;;;;;6.37;3.20;;;;;;;;;;6316570;22;20431;-88
2023/12/09 05:24:17;;;;;;;4.63;3.07;;;;;;;;;;6314594;22;20481;-88
2023/12/09 05:26:44;;;;;;;4.70;3.03;;;;;;;;;;6316683;22;20390;-89
2023/12/09 05:29:10;;;;;;;5.97;2.60;;;;;;;;;;6316182;22;20372;-89
2023/12/09 05:31:37;;;;;;;3.63;2.60;;;;;;;;;;6319865;22;20417;-88
2023/12/09 05:34:03;;;;;;;6.27;2.93;;;;;;;;;;6318867;22;20434;-88
2023/12/09 05:36:29;;;;;;;6.23;3.07;;;;;;;;;;6346794;22;20387;-89
2023/12/09 05:38:55;;;;;;;3.83;3.20;;;;;;;;;;6317635;22;20372;-88
2023/12/09 05:41:21;;;;;;;4.17;2.90;;;;;;;;;;6318872;22;20410;-86
2023/12/09 05:43:47;;;;;;;5.80;2.67;;;;;;;;;;6316744;22;20379;-88
2023/12/09 05:46:18;;;;;;;6.63;3.10;;;;;;;;;;6319209;22;20368;-88
2023/12/09 05:48:44;;;;;;;3.47;2.30;;;;;;;;;;6317991;22;20403;-90
2023/12/09 05:51:10;;;;;;;4.33;2.47;;;;;;;;;;6319805;22;20426;-90
2023/12/09 05:53:36;;;;;;;4.83;2.40;;;;;;;;;;6320847;22;20867;-90
2023/12/09 05:56:02;;;;;;;5.10;2.70;;;;;;;;;;6318364;22;20466;-88
2023/12/09 05:58:28;;;;;;;2.90;2.47;;;;;;;;;;6322306;22;20378;-90
2023/12/09 06:00:56;;;;;;;3.07;2.53;;;;;;;;;;6317565;22;20379;-91
2023/12/09 06:03:22;;;;;;;13.70;2.60;;;;;;;;;;6321303;22;20419;-86
2023/12/09 06:05:48;;;;;;;3.87;2.63;;;;;;;;;;6317649;22;20382;-87
2023/12/09 06:08:14;;;;;;;4.30;3.13;;;;;;;;;;6321953;22;20418;-84
2023/12/09 06:10:40;;;;;;;4.13;2.20;;;;;;;;;;6316436;22;20499;-85
2023/12/09 06:13:06;;;;;;;5.63;3.37;;;;;;;;;;6318799;22;20375;-84
2023/12/09 06:15:32;;;;;;;6.03;2.73;;;;;;;;;;6316090;22;20386;-84
2023/12/09 06:17:58;;;;;;;6.90;3.73;;;;;;;;;;6345247;22;20878;-84
2023/12/09 06:20:24;;;;;;;2.50;2.20;;;;;;;;;;6316405;22;20375;-84
2023/12/09 06:22:50;;;;;;;5.80;3.17;;;;;;;;;;6320481;22;20885;-84
2023/12/09 06:25:16;;;;;;;3.87;2.97;;;;;;;;;;6316154;22;20765;-83
2023/12/09 06:27:42;;;;;;;5.83;3.07;;;;;;;;;;6345497;22;20387;-84
2023/12/09 06:30:09;;;;;;;2.47;1.97;;;;;;;;;;6317051;22;20419;-84
2023/12/09 06:32:35;;;;;;;3.37;2.80;;;;;;;;;;6319472;22;20386;-83
2023/12/09 06:35:01;;;;;;;5.33;3.40;;;;;;;;;;6315878;22;20421;-83
2023/12/09 06:37:27;;;;;;;5.73;3.53;;;;;;;;;;6319108;22;20382;-83
2023/12/09 06:39:53;;;;;;;4.20;2.63;;;;;;;;;;6340723;22;20450;-85
2023/12/09 06:42:19;;;;;;;5.60;2.40;;;;;;;;;;6342890;22;20382;-85
2023/12/09 06:44:45;;;;;;;4.60;2.47;;;;;;;;;;6342087;22;20383;-84
2023/12/09 06:47:11;;;;;;;4.50;3.00;;;;;;;;;;6320235;22;20371;-83
2023/12/09 06:49:37;;;;;;;4.30;2.93;;;;;;;;;;6315965;22;20483;-83
2023/12/09 06:52:03;;;;;;;3.60;2.27;;;;;;;;;;6324469;22;20399;-83
2023/12/09 06:54:29;;;;;;;2.80;2.60;;;;;;;;;;6325581;22;20391;-85
2023/12/09 06:56:56;;;;;;;6.43;1.97;;;;;;;;;;6331230;22;20371;-83
2023/12/09 06:59:22;;;;;;;3.17;2.20;;;;;;;;;;6328144;22;20375;-84
2023/12/09 07:01:49;;;;;;;7.40;3.00;;;;;;;;;;6327193;22;20384;-83
2023/12/09 07:04:15;;;;;;;5.43;1.97;;;;;;;;;;6329124;22;20384;-83
2023/12/09 07:06:41;;;;;;;7.37;1.83;;;;;;;;;;6328231;22;20755;-82
2023/12/09 07:09:08;;;;;;;4.43;2.63;;;;;;;;;;6317773;22;20379;-83
2023/12/09 07:11:34;;;;;;;6.00;2.03;;;;;;;;;;6315653;22;20410;-84
2023/12/09 07:14:00;;;;;;;7.97;2.17;;;;;;;;;;6318267;22;20383;-85
2023/12/09 07:16:26;;;;;;;4.57;2.30;;;;;;;;;;6341155;22;21184;-85
2023/12/09 07:18:58;;;;;;;3.33;2.70;;;;;;;;;;6315123;22;20391;-84
2023/12/09 07:21:24;;;;;;;3.00;2.10;;;;;;;;;;6315683;22;20759;-85
2023/12/09 07:23:50;;;;;;;2.30;2.10;;;;;;;;;;6313844;22;20377;-84
2023/12/09 07:26:16;;;;;;;3.30;2.63;;;;;;;;;;6313700;22;20419;-84
2023/12/09 07:28:42;;;;;;;2.10;1.67;;;;;;;;;;6319391;22;20375;-88
2023/12/09 07:31:08;;;;;;;2.27;1.50;;;;;;;;;;6316569;22;20476;-87
2023/12/09 07:33:34;;;;;;;3.13;1.90;;;;;;;;;;6324474;22;20712;-90
2023/12/09 07:36:00;;;;;;;3.03;2.20;;;;;;;;;;6325002;22;20375;-90
2023/12/09 07:38:26;;;;;;;10.53;2.33;;;;;;;;;;6352732;22;20352;-90
2023/12/09 07:40:53;;;;;;;4.43;2.00;;;;;;;;;;6322064;22;20501;-89
2023/12/09 07:43:19;;;;;;;3.63;3.03;;;;;;;;;;6325511;22;20380;-89
2023/12/09 07:45:45;;;;;;;4.57;2.63;;;;;;;;;;6323240;22;20368;-90
2023/12/09 07:48:11;;;;;;;6.30;2.17;;;;;;;;;;6319609;22;20372;-90
2023/12/09 07:50:37;;;;;;;3.80;2.10;;;;;;;;;;6319096;22;20465;-89
2023/12/09 07:53:03;;;;;;;10.97;3.10;;;;;;;;;;6322470;22;20407;-90
2023/12/09 07:55:29;;;;;;;4.93;3.77;;;;;;;;;;6319722;22;20386;-89
2023/12/09 07:57:58;;;;;;;4.33;3.00;;;;;;;;;;6321296;22;20415;-91
2023/12/09 08:00:27;;;;;;;7.27;2.50;;;;;;;;;;6317288;22;20431;-89
2023/12/09 08:02:54;;;;;;;3.53;2.10;;;;;;;;;;6318429;22;20446;-88
2023/12/09 08:05:21;;;;;;;2.90;1.80;;;;;;;;;;6320368;22;20401;-90
2023/12/09 08:07:47;;;;;;;5.30;2.57;;;;;;;;;;6318615;22;20376;-91
2023/12/09 08:10:13;;;;;;;3.10;2.27;;;;;;;;;;6320213;22;20427;-90
2023/12/09 08:12:39;;;;;;;3.20;2.57;;;;;;;;;;6344585;22;20446;-90
2023/12/09 08:15:05;;;;;;;2.93;2.40;;;;;;;;;;6317602;22;20997;-90
2023/12/09 08:17:33;;;;;;;3.30;2.00;;;;;;;;;;6317540;22;20706;-90
2023/12/09 08:19:59;;;;;;;3.87;2.30;;;;;;;;;;6319013;22;20371;-89
2023/12/09 08:22:25;;;;;;;4.33;3.10;;;;;;;;;;6318780;22;20386;-90
2023/12/09 08:24:51;;;;;;;4.40;3.13;;;;;;;;;;6322945;22;20564;-89
2023/12/09 08:27:16;;;;;;;2.50;2.13;;;;;;;;;;6345794;22;20491;-90
2023/12/09 08:29:42;;;;;;;2.03;1.80;;;;;;;;;;6324238;22;20902;-90
2023/12/09 08:32:09;;;;;;;2.67;2.43;;;;;;;;;;6318202;22;20375;-89
2023/12/09 08:34:35;;;;;;;2.97;2.43;;;;;;;;;;6317853;22;20390;-90
2023/12/09 08:37:01;;;;;;;7.43;2.60;;;;;;;;;;6320755;22;20376;-89
2023/12/09 08:39:27;;;;;;;3.37;3.07;;;;;;;;;;6319099;22;20378;-89
2023/12/09 08:41:53;;;;;;;4.07;2.20;;;;;;;;;;6318714;22;20754;-89
2023/12/09 08:44:19;;;;;;;5.33;1.80;;;;;;;;;;6318518;22;20389;-89
2023/12/09 08:46:45;;;;;;;3.30;2.00;;;;;;;;;;6320534;22;20901;-90
2023/12/09 08:49:11;;;;;;;2.47;1.67;;;;;;;;;;6320041;22;20472;-89
2023/12/09 08:51:46;;;;;;;5.60;1.67;;;;;;;;;;6322432;22;20827;-90
2023/12/09 08:54:13;;;;;;;3.13;1.70;;;;;;;;;;6321697;22;20710;-91
2023/12/09 08:56:39;;;;;;;4.43;1.80;;;;;;;;;;6321683;22;20367;-91
2023/12/09 08:59:07;;;;;;;2.90;1.93;;;;;;;;;;6319714;22;20375;-92
2023/12/09 09:01:34;;;;;;;3.73;1.47;;;;;;;;;;6323178;22;20418;-91
2023/12/09 09:04:01;;;;;;;4.63;1.63;;;;;;;;;;6319062;22;20380;-87
2023/12/09 09:06:27;;;;;;;2.20;1.40;;;;;;;;;;6319739;22;20375;-89
2023/12/09 09:08:53;;;;;;;2.23;1.50;;;;;;;;;;6316419;22;20976;-90
2023/12/09 09:11:20;;;;;;;4.80;1.40;;;;;;;;;;6318055;22;20506;-88
2023/12/09 09:13:46;;;;;;;4.10;2.30;;;;;;;;;;6316502;22;20878;-89
2023/12/09 09:16:12;;;;;;;4.43;2.00;;;;;;;;;;6322542;22;20409;-89
2023/12/09 09:18:38;;;;;;;4.60;2.00;;;;;;;;;;6342972;22;20340;-90
2023/12/09 09:21:04;;;;;;;2.70;1.53;;;;;;;;;;6320742;22;20386;-90
2023/12/09 09:23:30;;;;;;;1.90;1.53;;;;;;;;;;6316119;22;20375;-91
2023/12/09 09:25:56;;;;;;;2.47;1.77;;;;;;;;;;6319420;22;20392;-91
2023/12/09 09:28:22;;;;;;;5.20;1.93;;;;;;;;;;6316317;22;20374;-90
2023/12/09 09:30:48;;;;;;;5.90;2.13;;;;;;;;;;6320511;22;20423;-90
2023/12/09 09:33:33;;;;;;;4.40;2.27;;;;;;;;;;6320289;22;20874;-90
2023/12/09 09:36:16;;;;;;;2.77;2.13;;;;;;;;;;6324549;22;20432;-90
2023/12/09 09:38:42;;;;;;;1.80;1.70;;;;;;;;;;6323695;22;20414;-90
2023/12/09 09:41:14;;;;;;;3.20;2.07;;;;;;;;;;6321601;22;20885;-91
2023/12/09 09:43:43;;;;;;;5.37;1.80;;;;;;;;;;6345060;22;21171;-92
2023/12/09 09:46:09;;;;;;;3.80;2.50;;;;;;;;;;6319061;22;20462;-90
2023/12/09 09:48:39;;;;;;;7.40;1.80;;;;;;;;;;6321076;22;20408;-90
2023/12/09 09:51:06;;;;;;;3.50;2.10;;;;;;;;;;6321009;22;20452;-90
2023/12/09 09:53:36;;;;;;;3.83;2.63;;;;;;;;;;6320649;22;20436;-90
2023/12/09 09:56:02;;;;;;;4.13;1.80;;;;;;;;;;6320053;22;20421;-90
2023/12/09 09:58:28;;;;;;;2.40;2.20;;;;;;;;;;6321173;22;20380;-90
2023/12/09 10:00:56;;;;;;;5.67;2.60;;;;;;;;;;6320952;22;20462;-89
2023/12/09 10:03:23;;;;;;;6.03;1.83;;;;;;;;;;6326664;22;20477;-90
2023/12/09 10:05:50;;;;;;;2.67;1.27;;;;;;;;;;6319458;22;20414;-90
2023/12/09 10:08:16;;;;;;;2.90;1.70;;;;;;;;;;6321627;22;21047;-90
2023/12/09 10:10:42;;;;;;;3.80;2.80;;;;;;;;;;6319473;22;20431;-90
2023/12/09 10:13:09;;;;;;;2.10;1.60;;;;;;;;;;6321097;22;20434;-91
2023/12/09 10:15:35;;;;;;;2.00;1.80;;;;;;;;;;6319178;22;20380;-90
2023/12/09 10:18:01;;;;;;;6.87;2.00;;;;;;;;;;6321280;22;20389;-91
2023/12/09 10:20:29;;;;;;;2.73;1.90;;;;;;;;;;6317549;22;20403;-90
2023/12/09 10:22:55;;;;;;;3.00;1.97;;;;;;;;;;6320022;22;20375;-90
2023/12/09 10:25:24;;;;;;;3.23;1.73;;;;;;;;;;6328115;22;20375;-89
2023/12/09 10:27:50;;;;;;;8.57;1.67;;;;;;;;;;6331977;22;20375;-90
2023/12/09 10:30:18;;;;;;;2.43;1.37;;;;;;;;;;6327652;22;20486;-90
2023/12/09 10:32:44;;;;;;;3.10;1.30;;;;;;;;;;6328160;22;20429;-88
2023/12/09 10:35:10;;;;;;;2.73;1.57;;;;;;;;;;6319310;22;20376;-89
2023/12/09 10:37:36;;;;;;;4.23;2.17;;;;;;;;;;6324178;22;20375;-90
2023/12/09 10:40:03;;;;;;;5.40;1.87;;;;;;;;;;6348487;22;20412;-89
2023/12/09 10:42:30;;;;;;;3.30;1.60;;;;;;;;;;6347193;22;20378;-89
2023/12/09 10:44:56;;;;;;;3.23;1.87;;;;;;;;;;6321494;22;20376;-90
2023/12/09 10:47:22;;;;;;;5.93;1.83;;;;;;;;;;6325429;22;20390;-91
2023/12/09 10:49:47;;;;;;;2.00;1.30;;;;;;;;;;6324414;22;20484;-92
2023/12/09 10:52:13;;;;;;;3.00;2.70;;;;;;;;;;6324180;22;20375;-90
2023/12/09 10:54:39;;;;;;;3.97;1.87;;;;;;;;;;6324598;22;20734;-91
2023/12/09 10:57:12;;;;;;;4.70;2.23;;;;;;;;;;6325895;22;20372;-95
2023/12/09 10:59:43;;;;;;;1.97;1.30;;;;;;;;;;6361649;22;20427;-93
2023/12/09 11:02:09;;;;;;;2.50;1.50;;;;;;;;;;6302684;22;20396;-91
2023/12/09 11:04:36;;;;;;;2.73;1.90;;;;;;;;;;6315580;22;20439;-93
2023/12/09 11:07:06;;;;;;;3.20;2.60;;;;;;;;;;6332885;22;20483;-93
2023/12/09 11:09:51;;;;;;;2.73;1.70;;;;;;;;;;6335543;22;20431;-93
2023/12/09 11:12:30;;;;;;;3.60;1.97;;;;;;;;;;6358750;22;20474;-94
2023/12/09 11:15:07;;;;;;;6.60;2.10;;;;;;;;;;6331794;22;20395;-92
2023/12/09 11:17:37;;;;;;;2.50;2.27;;;;;;;;;;6353347;22;20422;-92
2023/12/09 11:20:10;;;;;;;3.63;1.97;;;;;;;;;;6328341;22;20923;-93
2023/12/09 11:22:40;;;;;;;2.50;1.60;;;;;;;;;;6328602;22;20828;-95
2023/12/09 11:25:10;;;;;;;2.13;1.83;;;;;;;;;;6331979;22;20371;-94
2023/12/09 11:27:42;;;;;;;1.97;1.50;;;;;;;;;;6332131;22;20372;-95
2023/12/09 11:30:11;;;;;;;4.30;2.23;;;;;;;;;;6300270;22;20505;-93
2023/12/09 11:32:37;;;;;;;6.20;1.60;;;;;;;;;;6276651;22;20411;-93
2023/12/09 11:35:03;;;;;;;3.37;1.60;;;;;;;;;;6273226;22;20391;-92
2023/12/09 11:37:40;;;;;;;2.53;2.33;;;;;;;;;;6206601;22;20567;-90
2023/12/09 11:40:11;;;;;;;4.10;2.13;;;;;;;;;;6208574;22;20379;-94
2023/12/09 11:42:37;;;;;;;2.63;1.90;;;;;;;;;;6208617;22;20379;-94
2023/12/09 11:45:04;;;;;;;3.37;2.40;;;;;;;;;;6202459;23;20399;-94
2023/12/09 11:47:30;;;;;;;3.40;2.27;;;;;;;;;;6203045;23;20815;-95
2023/12/09 11:50:01;;;;;;;3.70;2.03;;;;;;;;;;6207872;22;20435;-94
2023/12/09 11:52:27;;;;;;;2.33;2.03;;;;;;;;;;6210611;23;20399;-95
2023/12/09 11:55:04;;;;;;;4.77;2.00;;;;;;;;;;6212885;23;20394;-92
2023/12/09 12:02:48;;;;;;;2.90;2.00;;;;;;;;;;6315557;22;20434;-87
2023/12/09 12:05:14;;;;;;;2.13;1.87;;;;;;;;;;6345253;22;20367;-87
2023/12/09 12:07:40;;;;;;;2.60;2.30;;;;;;;;;;6348457;22;20388;-88
2023/12/09 12:10:07;;;;;;;4.70;2.80;;;;;;;;;;6345845;22;20428;-87
2023/12/09 12:12:33;;;;;;;2.60;2.30;;;;;;;;;;6320837;22;20376;-87
2023/12/09 12:15:00;;;;;;;2.40;2.00;;;;;;;;;;6348117;22;20363;-88
2023/12/09 12:17:28;;;;;;;2.20;2.10;;;;;;;;;;6320984;22;20368;-87
2023/12/09 12:19:55;;;;;;;3.00;1.67;;;;;;;;;;6320412;22;20388;-87
2023/12/09 12:22:21;;;;;;;2.43;2.03;;;;;;;;;;6345660;22;20873;-87
2023/12/09 12:24:47;;;;;;;4.50;2.50;;;;;;;;;;6320663;22;20380;-87
2023/12/09 12:27:13;;;;;;;3.93;2.30;;;;;;;;;;6320559;22;20397;-85
2023/12/09 12:29:39;;;;;;;4.20;2.27;;;;;;;;;;6323656;22;20411;-87
2023/12/09 12:32:08;;;;;;;3.40;2.10;;;;;;;;;;6320099;22;20398;-87
2023/12/09 12:34:34;;;;;;;2.77;2.50;;;;;;;;;;6323688;22;20380;-88
2023/12/09 12:37:01;;;;;;;2.10;1.90;;;;;;;;;;6322525;22;20379;-86
2023/12/09 12:39:27;;;;;;;3.17;2.87;;;;;;;;;;6263720;22;20366;-88
2023/12/09 12:41:53;;;;;;;2.20;2.00;;;;;;;;;;6232579;22;20388;-86
2023/12/09 12:44:19;;;;;;;2.17;1.97;;;;;;;;;;6235825;22;20381;-88
2023/12/09 12:46:45;;;;;;;3.27;1.93;;;;;;;;;;6256069;22;20432;-87
2023/12/09 12:49:11;;;;;;;3.17;1.93;;;;;;;;;;6229641;22;20769;-87
2023/12/09 12:51:37;;;;;;;2.30;1.97;;;;;;;;;;6230938;22;20381;-87
2023/12/09 12:54:04;;;;;;;3.70;3.40;;;;;;;;;;6282619;22;20913;-91
2023/12/09 12:56:30;;;;;;;5.20;1.90;;;;;;;;;;6238235;22;20448;-89
2023/12/09 12:58:59;;;;;;;2.37;2.17;;;;;;;;;;6236090;22;20397;-90
2023/12/09 13:01:25;;;;;;;3.00;2.10;;;;;;;;;;6232119;22;20393;-90
2023/12/09 13:03:51;;;;;;;1.87;1.77;;;;;;;;;;6228485;22;20437;-90
2023/12/09 13:06:17;;;;;;;5.63;2.20;;;;;;;;;;6229103;22;20393;-90
2023/12/09 13:08:43;;;;;;;2.20;1.80;;;;;;;;;;6227668;22;20407;-89
2023/12/09 13:11:09;;;;;;;2.80;2.60;;;;;;;;;;6309389;22;20430;-91
2023/12/09 13:13:35;;;;;;;2.73;2.30;;;;;;;;;;6322813;22;20376;-89
2023/12/09 13:16:02;;;;;;;2.17;1.97;;;;;;;;;;6325362;22;20395;-90
2023/12/09 13:18:29;;;;;;;2.40;1.77;;;;;;;;;;6322125;22;20500;-89
2023/12/09 13:20:55;;;;;;;2.13;1.80;;;;;;;;;;6322309;22;20376;-90
2023/12/09 13:23:21;;;;;;;2.90;2.27;;;;;;;;;;6320279;22;20393;-90
2023/12/09 13:25:48;;;;;;;4.20;1.87;;;;;;;;;;6323028;22;20372;-90
2023/12/09 13:28:14;;;;;;;2.07;1.53;;;;;;;;;;6322870;22;20387;-89
2023/12/09 13:30:43;;;;;;;2.60;2.00;;;;;;;;;;6323331;22;20417;-90
2023/12/09 13:33:09;;;;;;;2.53;1.87;;;;;;;;;;6320599;22;20387;-90
2023/12/09 13:35:35;;;;;;;2.53;1.83;;;;;;;;;;6322674;22;20364;-89
2023/12/09 13:38:02;;;;;;;3.50;2.10;;;;;;;;;;6320819;22;20386;-89
2023/12/09 13:40:29;;;;;;;2.73;2.30;;;;;;;;;;6323563;22;20384;-92
2023/12/09 13:42:55;;;;;;;1.80;1.70;;;;;;;;;;6320676;22;20874;-90
2023/12/09 13:45:27;;;;;;;4.20;2.83;;;;;;;;;;6324273;22;20394;-90
2023/12/09 13:47:53;;;;;;;2.13;1.93;;;;;;;;;;6323150;22;20398;-91
2023/12/09 13:50:20;;;;;;;4.13;1.90;;;;;;;;;;6323258;22;20501;-91
2023/12/09 13:52:46;;;;;;;2.17;1.97;;;;;;;;;;6324077;22;20410;-91
2023/12/09 13:55:14;;;;;;;2.43;1.87;;;;;;;;;;6325120;22;20375;-91
2023/12/09 13:57:40;;;;;;;3.67;3.03;;;;;;;;;;6326405;22;20447;-92
2023/12/09 14:00:07;;;;;;;3.17;2.80;;;;;;;;;;6321145;22;20415;-90
2023/12/09 14:02:34;;;;;;;5.93;2.37;;;;;;;;;;6321640;22;20375;-89
2023/12/09 14:05:00;;;;;;;3.77;2.83;;;;;;;;;;6322304;22;20379;-90
2023/12/09 14:07:26;;;;;;;2.87;2.23;;;;;;;;;;6322687;22;20397;-90
2023/12/09 14:09:52;;;;;;;3.00;1.83;;;;;;;;;;6321427;22;20502;-90
2023/12/09 14:12:18;;;;;;;1.80;1.70;;;;;;;;;;6350986;22;20392;-91
2023/12/09 14:14:44;;;;;;;2.13;1.93;;;;;;;;;;6321911;22;20375;-90
2023/12/09 14:17:11;;;;;;;4.20;2.20;;;;;;;;;;6326034;22;20359;-91
2023/12/09 14:19:37;;;;;;;2.77;1.63;;;;;;;;;;6328026;22;20371;-90
2023/12/09 14:22:07;;;;;;;1.80;1.70;;;;;;;;;;6324055;22;20761;-91
2023/12/09 14:24:33;;;;;;;2.70;2.10;;;;;;;;;;6317815;22;20442;-91
2023/12/09 14:26:59;;;;;;;2.93;2.50;;;;;;;;;;6312480;22;20393;-88
2023/12/09 14:29:25;;;;;;;1.73;1.63;;;;;;;;;;6314456;22;20424;-87
2023/12/09 14:31:52;;;;;;;2.80;1.80;;;;;;;;;;6313703;22;20419;-87
2023/12/09 14:34:18;;;;;;;5.23;1.73;;;;;;;;;;6312128;22;20953;-89
2023/12/09 14:36:44;;;;;;;3.20;2.03;;;;;;;;;;6340976;22;20762;-88
2023/12/09 14:39:10;;;;;;;3.00;2.70;;;;;;;;;;6315602;22;20375;-87
2023/12/09 14:41:36;;;;;;;3.00;2.73;;;;;;;;;;6315898;22;20859;-86
2023/12/09 14:44:03;;;;;;;6.00;2.70;;;;;;;;;;6318947;22;20903;-86
2023/12/09 14:46:30;;;;;;;4.10;2.13;;;;;;;;;;6316302;22;20449;-85